^^
Paulen-Weather Station Historical Data
Daily Summary for May 25, 2022 Units:  English    Metric   Both
Daily Weekly Monthly Yearly Custom
  High: Low: Average:
Temperature: 55.4 °F 50 °F 52.7 °F
Dew Point: 51.8 °F 48.2 °F 50.2 °F
Humidity: 97% 79% 91%
Wind Speed: 18.6mph 0mph 6mph
Wind Gust: 15.5mph - -
Wind- - NW
Pressure: 29.7 in 29.6 in -
Precipitation: 0.09 in    
Historical Graphs
 
 
Tabular Data for May 25, 2022
Time Temperature Dew Point Pressure Wind Wind Speed Wind Gust Humidity Rainfall Rate (Hourly) solar
00:04 53.6 °F 51.8 °F 29.6 in N 4.3 mph 3.7 mph 93% 0 in 0 W/m2
00:09 53.6 °F 51.8 °F 29.6 in WSW 3.1 mph 3.7 mph 92% 0 in 0 W/m2
00:14 53.6 °F 51.8 °F 29.6 in N 3.7 mph 3.7 mph 92% 0 in 0 W/m2
00:19 53.6 °F 51.8 °F 29.6 in N 2.5 mph 1.9 mph 92% 0 in 0 W/m2
00:24 53.6 °F 51.8 °F 29.6 in N 2.5 mph 1.9 mph 92% 0 in 0 W/m2
00:29 53.6 °F 51.8 °F 29.6 in N 5.6 mph 5.6 mph 92% 0 in 0 W/m2
00:34 53.6 °F 51.8 °F 29.6 in NNW 5.6 mph 5.6 mph 92% 0.01 in 0 W/m2
00:39 53.6 °F 50 °F 29.6 in NW 4.3 mph 3.1 mph 93% 0.02 in 0 W/m2
00:44 51.8 °F 50 °F 29.6 in NNW 4.3 mph 3.1 mph 93% 0.03 in 0 W/m2
00:49 51.8 °F 50 °F 29.6 in NNW 3.1 mph 3.1 mph 94% 0.04 in 0 W/m2
00:54 51.8 °F 50 °F 29.6 in WNW 1.9 mph 1.2 mph 94% 0.06 in 0 W/m2
00:59 51.8 °F 50 °F 29.6 in WNW 1.2 mph 1.2 mph 95% 0.06 in 0 W/m2
01:04 51.8 °F 50 °F 29.6 in W 1.9 mph 1.2 mph 95% 0.06 in 0 W/m2
01:09 51.8 °F 50 °F 29.6 in W 1.9 mph 2.5 mph 95% 0.06 in 0 W/m2
01:14 51.8 °F 50 °F 29.6 in WNW 2.5 mph 1.9 mph 95% 0.06 in 0 W/m2
01:19 51.8 °F 50 °F 29.6 in WNW 1.9 mph 1.9 mph 96% 0.06 in 0 W/m2
01:24 51.8 °F 50 °F 29.6 in W 2.5 mph 0.6 mph 96% 0.06 in 0 W/m2
01:29 51.8 °F 50 °F 29.6 in W 1.2 mph 1.2 mph 96% 0.07 in 0 W/m2
01:34 51.8 °F 50 °F 29.6 in WSW 1.2 mph 0.6 mph 96% 0.07 in 0 W/m2
01:39 51.8 °F 50 °F 29.6 in WSW 1.2 mph 0.6 mph 96% 0.07 in 0 W/m2
01:44 51.8 °F 50 °F 29.6 in W 0.6 mph   96% 0.06 in 0 W/m2
01:49 51.8 °F 50 °F 29.6 in W 1.2 mph   96% 0.06 in 0 W/m2
01:54 51.8 °F 50 °F 29.6 in Calm     96% 0.04 in 0 W/m2
01:59 51.8 °F 51.8 °F 29.6 in Calm     97% 0.03 in 0 W/m2
02:04 51.8 °F 51.8 °F 29.6 in Calm     97% 0.02 in 0 W/m2
02:09 51.8 °F 50 °F 29.6 in Calm     97% 0.02 in 0 W/m2
02:14 51.8 °F 51.8 °F 29.6 in Calm     97% 0.02 in 0 W/m2
02:19 51.8 °F 51.8 °F 29.6 in Calm     97% 0.02 in 0 W/m2
02:24 51.8 °F 51.8 °F 29.6 in Calm     97% 0.02 in 0 W/m2
02:29 51.8 °F 51.8 °F 29.6 in WSW 0.6 mph 0.6 mph 97% 0.02 in 0 W/m2
02:34 51.8 °F 51.8 °F 29.6 in W 1.2 mph 1.9 mph 97% 0.02 in 0 W/m2
02:39 51.8 °F 51.8 °F 29.6 in NW 2.5 mph 1.9 mph 97% 0.01 in 0 W/m2
02:44 51.8 °F 51.8 °F 29.6 in W 1.2 mph 0.6 mph 97% 0.01 in 0 W/m2
02:49 51.8 °F 51.8 °F 29.6 in W 1.2 mph 0.6 mph 97% 0 in 0 W/m2
02:54 51.8 °F 51.8 °F 29.6 in WNW 1.2 mph 0.6 mph 97% 0 in 0 W/m2
02:59 51.8 °F 51.8 °F 29.6 in N 0.6 mph   97% 0 in 0 W/m2
03:04 51.8 °F 50 °F 29.6 in WSW 1.2 mph 0.6 mph 97% 0 in 0 W/m2
03:09 51.8 °F 50 °F 29.6 in WNW 1.9 mph 1.2 mph 97% 0 in 0 W/m2
03:14 51.8 °F 50 °F 29.6 in W 1.9 mph 1.2 mph 97% 0 in 0 W/m2
03:19 51.8 °F 50 °F 29.6 in W 2.5 mph 3.1 mph 97% 0 in 0 W/m2
03:24 51.8 °F 50 °F 29.6 in W 2.5 mph 1.9 mph 97% 0 in 0 W/m2
03:29 51.8 °F 50 °F 29.6 in NNW 2.5 mph 1.9 mph 97% 0.01 in 0 W/m2
03:34 51.8 °F 50 °F 29.6 in NW 3.1 mph 1.9 mph 97% 0.01 in 0 W/m2
03:39 51.8 °F 50 °F 29.6 in WNW 2.5 mph 1.2 mph 97% 0.01 in 0 W/m2
03:44 51.8 °F 50 °F 29.6 in WNW 3.7 mph 1.9 mph 97% 0.01 in 0 W/m2
03:49 51.8 °F 50 °F 29.6 in WNW 2.5 mph 1.9 mph 97% 0.01 in 0 W/m2
03:54 51.8 °F 50 °F 29.6 in W 1.2 mph 0.6 mph 97% 0.01 in 0 W/m2
03:59 51.8 °F 50 °F 29.6 in WNW 2.5 mph 1.9 mph 97% 0.01 in 0 W/m2
04:04 51.8 °F 50 °F 29.6 in NW 2.5 mph 1.2 mph 97% 0.01 in 0 W/m2
04:09 51.8 °F 50 °F 29.6 in W 3.1 mph 1.2 mph 97% 0.01 in 0 W/m2
04:14 51.8 °F 50 °F 29.6 in WNW 1.2 mph 0.6 mph 97% 0.01 in 0 W/m2
04:19 51.8 °F 50 °F 29.6 in WNW 1.2 mph 0.6 mph 97% 0.01 in 0 W/m2
04:24 51.8 °F 50 °F 29.6 in NW 2.5 mph 1.2 mph 97% 0.01 in 0 W/m2
04:29 51.8 °F 50 °F 29.6 in NW 3.1 mph 1.9 mph 97% 0.01 in 0 W/m2
04:34 51.8 °F 50 °F 29.6 in W 3.1 mph 1.9 mph 97% 0 in 0 W/m2
04:39 51.8 °F 50 °F 29.6 in WNW 2.5 mph 1.2 mph 97% 0 in 0 W/m2
04:44 51.8 °F 50 °F 29.6 in NW 4.3 mph 1.9 mph 97% 0 in 0 W/m2
04:49 51.8 °F 50 °F 29.6 in NNW 3.1 mph 3.1 mph 97% 0 in 0 W/m2
04:54 51.8 °F 50 °F 29.6 in NW 1.9 mph 0.6 mph 97% 0 in 0 W/m2
04:59 51.8 °F 50 °F 29.6 in NNW 2.5 mph 0.6 mph 97% 0 in 0 W/m2
05:04 50 °F 50 °F 29.6 in WNW 3.7 mph 1.9 mph 97% 0 in 0 W/m2
05:09 50 °F 50 °F 29.6 in W 2.5 mph 2.5 mph 97% 0 in 0 W/m2
05:14 50 °F 50 °F 29.6 in NW 3.1 mph 1.9 mph 97% 0 in 5 W/m2
05:19 50 °F 50 °F 29.6 in W 1.9 mph 1.2 mph 97% 0 in 5 W/m2
05:24 50 °F 50 °F 29.6 in W 3.7 mph 1.9 mph 97% 0 in 9 W/m2
05:29 50 °F 50 °F 29.6 in NNW 2.5 mph 0.6 mph 97% 0 in 12 W/m2
05:34 50 °F 50 °F 29.6 in W 1.9 mph 0.6 mph 97% 0 in 16 W/m2
05:39 50 °F 50 °F 29.6 in NNW 1.2 mph 0.6 mph 97% 0 in 18 W/m2
05:44 50 °F 50 °F 29.6 in NW 4.3 mph 2.5 mph 97% 0 in 21 W/m2
05:49 50 °F 50 °F 29.6 in NW 3.7 mph 2.5 mph 97% 0 in 23 W/m2
05:54 50 °F 50 °F 29.7 in NW 5.6 mph 3.1 mph 97% 0 in 25 W/m2
05:59 50 °F 50 °F 29.7 in WNW 2.5 mph 1.2 mph 97% 0 in 25 W/m2
06:04 50 °F 50 °F 29.7 in NW 3.1 mph 1.9 mph 97% 0 in 25 W/m2
06:09 50 °F 48.2 °F 29.7 in NW 3.7 mph 1.9 mph 97% 0 in 25 W/m2
06:14 50 °F 48.2 °F 29.7 in NNW 4.3 mph 3.7 mph 97% 0 in 40 W/m2
06:19 50 °F 48.2 °F 29.7 in NW 5 mph 2.5 mph 97% 0 in 40 W/m2
06:24 50 °F 48.2 °F 29.7 in NNW 1.9 mph 0.6 mph 97% 0 in 28 W/m2
06:29 50 °F 48.2 °F 29.7 in NNW 2.5 mph 1.9 mph 97% 0 in 28 W/m2
06:34 50 °F 48.2 °F 29.7 in W 1.9 mph 1.2 mph 97% 0 in 40 W/m2
06:39 50 °F 48.2 °F 29.7 in NW 2.5 mph 1.2 mph 97% 0 in 47 W/m2
06:44 50 °F 48.2 °F 29.7 in NW 1.9 mph 0.6 mph 97% 0 in 185 W/m2
06:49 50 °F 50 °F 29.7 in WNW 1.2 mph 2.5 mph 97% 0 in 188 W/m2
06:54 50 °F 50 °F 29.7 in NW 4.3 mph 3.1 mph 97% 0 in 200 W/m2
06:59 50 °F 50 °F 29.7 in NNW 5.6 mph 5 mph 97% 0 in 220 W/m2
07:04 50 °F 50 °F 29.7 in NW 5 mph 3.7 mph 96% 0 in 227 W/m2
07:09 51.8 °F 50 °F 29.7 in NNW 3.7 mph 2.5 mph 96% 0 in 232 W/m2
07:14 51.8 °F 50 °F 29.7 in WNW 5.6 mph 3.7 mph 96% 0 in 243 W/m2
07:19 51.8 °F 50 °F 29.7 in NW 3.7 mph 2.5 mph 96% 0 in 253 W/m2
07:24 51.8 °F 50 °F 29.7 in WNW 3.1 mph 1.9 mph 96% 0 in 264 W/m2
07:29 51.8 °F 51.8 °F 29.7 in WNW 3.7 mph 3.1 mph 95% 0 in 272 W/m2
07:34 51.8 °F 51.8 °F 29.7 in WNW 3.7 mph 2.5 mph 95% 0 in 283 W/m2
07:39 51.8 °F 51.8 °F 29.7 in NNW 3.7 mph 2.5 mph 95% 0 in 295 W/m2
07:44 51.8 °F 50 °F 29.7 in N 4.3 mph 2.5 mph 94% 0 in 306 W/m2
07:49 51.8 °F 50 °F 29.7 in NNW 5 mph 4.3 mph 94% 0 in 316 W/m2
07:54 51.8 °F 50 °F 29.7 in NNW 4.3 mph 3.1 mph 93% 0 in 329 W/m2
07:59 51.8 °F 50 °F 29.7 in NNW 6.8 mph 4.3 mph 93% 0 in 352 W/m2
08:04 53.6 °F 51.8 °F 29.7 in N 5 mph 3.1 mph 92% 0 in 360 W/m2
08:09 53.6 °F 51.8 °F 29.7 in NNW 6.8 mph 3.7 mph 92% 0 in 380 W/m2
08:14 53.6 °F 50 °F 29.7 in N 8.1 mph 5.6 mph 91% 0 in 388 W/m2
08:19 53.6 °F 50 °F 29.7 in NW 6.2 mph 4.3 mph 90% 0 in 410 W/m2
08:24 53.6 °F 50 °F 29.7 in NNW 8.7 mph 5.6 mph 90% 0 in 413 W/m2
08:29 53.6 °F 50 °F 29.7 in NW 7.5 mph 4.3 mph 90% 0 in 438 W/m2
08:34 53.6 °F 51.8 °F 29.7 in NW 8.1 mph 5 mph 89% 0 in 482 W/m2
08:39 53.6 °F 50 °F 29.7 in NNW 6.8 mph 5.6 mph 88% 0 in 566 W/m2
08:44 53.6 °F 50 °F 29.7 in NNW 8.7 mph 5.6 mph 88% 0 in 626 W/m2
08:49 53.6 °F 50 °F 29.7 in N 9.3 mph 8.1 mph 86% 0 in 626 W/m2
08:54 53.6 °F 50 °F 29.7 in NNW 8.1 mph 5.6 mph 86% 0 in 297 W/m2
08:59 53.6 °F 50 °F 29.7 in NNW 6.8 mph 5.6 mph 86% 0 in 232 W/m2
09:04 53.6 °F 50 °F 29.7 in NW 7.5 mph 5.6 mph 85% 0 in 214 W/m2
09:09 53.6 °F 50 °F 29.7 in NNW 6.8 mph 4.3 mph 85% 0 in 287 W/m2
09:14 53.6 °F 50 °F 29.7 in NNW 7.5 mph 4.3 mph 86% 0 in 705 W/m2
09:19 53.6 °F 50 °F 29.7 in N 9.3 mph 6.2 mph 85% 0 in 694 W/m2
09:24 53.6 °F 50 °F 29.7 in NNW 7.5 mph 5.6 mph 84% 0 in 585 W/m2
09:29 55.4 °F 50 °F 29.7 in NNW 5 mph 4.3 mph 85% 0 in 598 W/m2
09:34 55.4 °F 50 °F 29.7 in N 8.7 mph 8.7 mph 84% 0 in 561 W/m2
09:39 55.4 °F 50 °F 29.7 in N 8.1 mph 4.3 mph 84% 0 in 575 W/m2
09:44 55.4 °F 50 °F 29.7 in N 8.7 mph 9.3 mph 84% 0 in 591 W/m2
09:49 55.4 °F 50 °F 29.7 in N 9.9 mph 7.5 mph 84% 0 in 633 W/m2
09:54 55.4 °F 50 °F 29.7 in N 9.3 mph 8.1 mph 84% 0 in 629 W/m2
09:59 55.4 °F 50 °F 29.7 in N 10.6 mph 7.5 mph 83% 0 in 622 W/m2
10:04 55.4 °F 50 °F 29.7 in N 10.6 mph 11.8 mph 82% 0 in 708 W/m2
10:09 55.4 °F 50 °F 29.7 in N 13.7 mph 11.8 mph 82% 0 in 765 W/m2
10:14 55.4 °F 50 °F 29.7 in N 13.7 mph 13 mph 81% 0 in 758 W/m2
10:19 55.4 °F 50 °F 29.7 in N 13 mph 10.6 mph 82% 0 in 795 W/m2
10:24 55.4 °F 50 °F 29.7 in N 14.9 mph 10.6 mph 81% 0 in 719 W/m2
10:29 55.4 °F 50 °F 29.7 in N 14.3 mph 10.6 mph 82% 0 in 851 W/m2
10:34 55.4 °F 50 °F 29.7 in N 14.3 mph 12.4 mph 83% 0 in 784 W/m2
10:39 55.4 °F 50 °F 29.7 in N 14.9 mph 13.7 mph 83% 0 in 784 W/m2
10:44 53.6 °F 48.2 °F 29.7 in N 13 mph 11.2 mph 82% 0 in 295 W/m2
10:49 53.6 °F 48.2 °F 29.7 in N 9.3 mph 6.8 mph 83% 0 in 174 W/m2
10:54 53.6 °F 48.2 °F 29.7 in N 11.8 mph 8.7 mph 86% 0 in 125 W/m2
10:59 51.8 °F 48.2 °F 29.7 in N 9.3 mph 6.8 mph 88% 0 in 271 W/m2
11:04 51.8 °F 50 °F 29.7 in N 7.5 mph 6.2 mph 89% 0 in 712 W/m2
11:09 53.6 °F 50 °F 29.7 in N 8.7 mph 7.5 mph 90% 0 in 742 W/m2
11:14 53.6 °F 50 °F 29.7 in N 11.8 mph 11.8 mph 89% 0 in 742 W/m2
11:19 53.6 °F 50 °F 29.7 in N 13.7 mph 11.8 mph 87% 0 in 563 W/m2
11:24 53.6 °F 50 °F 29.7 in N 13 mph 10.6 mph 86% 0 in 657 W/m2
11:29 55.4 °F 50 °F 29.7 in N 11.8 mph 9.9 mph 85% 0 in 779 W/m2
11:34 55.4 °F 50 °F 29.7 in N 12.4 mph 11.2 mph 85% 0 in 779 W/m2
11:39 55.4 °F 50 °F 29.7 in N 12.4 mph 11.2 mph 84% 0 in 867 W/m2
11:44 55.4 °F 50 °F 29.7 in N 11.8 mph 11.2 mph 83% 0 in 865 W/m2
11:49 55.4 °F 50 °F 29.7 in N 14.9 mph 13.7 mph 83% 0 in 821 W/m2
11:54 55.4 °F 50 °F 29.7 in N 17.4 mph 13.7 mph 82% 0 in 821 W/m2
11:59 55.4 °F 50 °F 29.7 in N 15.5 mph 11.8 mph 81% 0 in 842 W/m2
12:04 55.4 °F 50 °F 29.7 in N 15.5 mph 13.7 mph 80% 0 in 837 W/m2
12:09 55.4 °F 48.2 °F 29.7 in N 18 mph 15.5 mph 79% 0 in 679 W/m2
12:14 55.4 °F 50 °F 29.7 in N 16.2 mph 11.8 mph 80% 0 in 802 W/m2
12:19 55.4 °F 50 °F 29.7 in N 14.3 mph 13 mph 80% 0 in 840 W/m2
12:24 55.4 °F 50 °F 29.7 in N 18.6 mph 13.7 mph 79% 0 in 840 W/m2
12:29 55.4 °F 48.2 °F 29.7 in N 16.2 mph 12.4 mph 79% 0 in 840 W/m2
12:34 55.4 °F 50 °F 29.7 in N 11.2 mph 6.2 mph 79% 0 in 840 W/m2
12:39 55.4 °F 50 °F 29.7 in N 8.7 mph 8.7 mph 79% 0 in 886 W/m2
12:44 55.4 °F 50 °F 29.7 in N 14.9 mph 14.3 mph 79% 0 in 939 W/m2
12:49 55.4 °F 50 °F 29.7 in N 13 mph 9.9 mph 80% 0 in 939 W/m2
12:54 55.4 °F 50 °F 29.7 in N 13.7 mph 10.6 mph 80% 0 in 939 W/m2
12:59 55.4 °F 50 °F 29.7 in N 14.9 mph 9.9 mph 80% 0 in 939 W/m2
13:04 55.4 °F 50 °F 29.7 in N 14.9 mph 12.4 mph 79% 0 in 926 W/m2
Compliments of Weather Underground - 2 mb